Time;durP1;ratioP1;P1;durP2;ratioP2;P2;SDS_P1;SDS_P2;PMS_P1;PMS_P2;Temp;Humidity;BMP_temperature;BMP_pressure;BME280_temperature;BME280_humidity;BME280_pressure;Samples;Min_cycle;Max_cycle;Signal;HPM_P1;HPM_P2
2022/04/14 00:00:06;;;;;;;32.22;17.85;;;10.80;99.90;;;;;;5008517;28;20447;-83
2022/04/14 00:02:32;;;;;;;33.42;17.27;;;10.80;99.90;;;;;;5028081;28;20048;-83
2022/04/14 00:04:58;;;;;;;35.53;17.45;;;10.90;99.90;;;;;;5008401;28;20649;-83
2022/04/14 00:07:24;;;;;;;31.30;17.27;;;10.80;99.90;;;;;;5009359;28;20125;-82
2022/04/14 00:09:50;;;;;;;32.75;17.60;;;10.80;99.90;;;;;;5022092;28;20048;-83
2022/04/14 00:12:16;;;;;;;34.33;16.85;;;10.90;99.90;;;;;;5026257;28;20041;-83
2022/04/14 00:14:42;;;;;;;27.50;15.00;;;10.90;99.90;;;;;;5023365;28;20052;-83
2022/04/14 00:17:07;;;;;;;;;;;10.90;99.90;;;;;;5025771;28;20061;-83
2022/04/14 00:19:33;;;;;;;23.58;13.88;;;10.90;99.90;;;;;;5017292;28;19925;-83
2022/04/14 00:21:59;;;;;;;27.50;15.07;;;10.80;99.90;;;;;;4998834;28;20049;-83
2022/04/14 00:24:25;;;;;;;27.05;14.30;;;10.70;99.90;;;;;;5042907;28;20440;-83
2022/04/14 00:26:50;;;;;;;27.95;15.13;;;10.80;99.90;;;;;;5009431;28;20048;-83
2022/04/14 00:29:16;;;;;;;25.13;14.20;;;10.70;99.90;;;;;;5034265;28;20049;-81
2022/04/14 00:31:42;;;;;;;26.42;15.25;;;10.80;99.90;;;;;;5051466;28;20048;-81
2022/04/14 00:34:07;;;;;;;30.48;16.23;;;10.70;99.90;;;;;;5052564;28;20045;-81
2022/04/14 00:36:33;;;;;;;28.88;14.73;;;10.60;99.90;;;;;;5034717;28;20106;-81
2022/04/14 00:38:59;;;;;;;28.20;14.88;;;10.70;99.90;;;;;;5051635;28;20071;-81
2022/04/14 00:41:27;;;;;;;29.80;15.55;;;10.60;99.90;;;;;;5035388;28;20080;-81
2022/04/14 00:43:55;;;;;;;27.70;14.73;;;10.60;99.90;;;;;;5018215;28;20106;-80
2022/04/14 00:46:21;;;;;;;26.20;15.05;;;10.70;99.90;;;;;;5035107;28;20110;-82
2022/04/14 00:48:51;;;;;;;29.90;16.95;;;10.60;99.90;;;;;;5042890;28;20136;-81
2022/04/14 00:51:17;;;;;;;31.00;15.60;;;10.60;99.90;;;;;;5001044;28;20136;-81
2022/04/14 00:53:42;;;;;;;28.00;14.77;;;10.60;99.90;;;;;;5034127;28;20135;-81
2022/04/14 00:56:08;;;;;;;27.63;14.90;;;10.60;99.90;;;;;;5035357;28;20120;-81
2022/04/14 00:58:34;;;;;;;32.22;16.63;;;10.60;99.90;;;;;;5033731;28;20041;-81
2022/04/14 01:01:01;;;;;;;;;;;10.60;99.90;;;;;;5035213;28;20047;-81
2022/04/14 01:03:29;;;;;;;33.47;18.25;;;10.60;99.90;;;;;;5035198;28;19921;-81
2022/04/14 01:05:55;;;;;;;32.63;15.88;;;10.60;99.90;;;;;;5034579;28;20083;-81
2022/04/14 01:08:21;;;;;;;29.70;17.13;;;10.60;99.90;;;;;;5034567;28;20057;-81
2022/04/14 01:10:49;;;;;;;31.55;17.33;;;10.50;99.90;;;;;;5034343;28;20110;-81
2022/04/14 01:13:18;;;;;;;32.40;16.65;;;10.50;99.90;;;;;;5017650;28;20053;-82
2022/04/14 01:15:45;;;;;;;22.40;12.27;;;10.50;99.90;;;;;;5034205;28;20151;-81
2022/04/14 01:18:11;;;;;;;23.50;12.02;;;10.50;99.90;;;;;;5034769;28;20113;-82
2022/04/14 01:20:41;;;;;;;22.92;13.90;;;10.50;99.90;;;;;;5034335;28;20037;-81
2022/04/14 01:23:09;;;;;;;19.90;11.77;;;10.50;99.90;;;;;;5034430;28;20045;-81
2022/04/14 01:25:35;;;;;;;16.85;10.18;;;10.40;99.90;;;;;;5034125;28;20075;-81
2022/04/14 01:28:05;;;;;;;17.00;10.05;;;10.40;99.90;;;;;;5034466;28;20083;-81
2022/04/14 01:30:31;;;;;;;23.42;12.98;;;10.30;99.90;;;;;;5013967;28;20041;-81
2022/04/14 01:32:57;;;;;;;20.05;12.73;;;10.30;99.90;;;;;;5024161;28;20555;-81
2022/04/14 01:35:24;;;;;;;33.75;16.58;;;10.20;99.90;;;;;;5018143;28;20041;-81
2022/04/14 01:37:50;;;;;;;28.92;16.48;;;10.20;99.90;;;;;;5033376;28;20045;-81
2022/04/14 01:40:17;;;;;;;32.25;16.38;;;10.20;99.90;;;;;;5034047;28;20633;-81
2022/04/14 01:42:43;;;;;;;33.47;18.40;;;10.20;99.90;;;;;;5017417;28;20056;-81
2022/04/14 01:45:10;;;;;;;32.38;17.35;;;10.20;99.90;;;;;;5049794;28;20044;-81
2022/04/14 01:47:44;;;;;;;28.67;16.55;;;10.20;99.90;;;;;;5033801;28;20055;-81
2022/04/14 01:50:12;;;;;;;32.72;16.05;;;10.10;99.90;;;;;;5034411;28;20448;-81
2022/04/14 01:52:39;;;;;;;33.17;17.20;;;10.10;99.90;;;;;;5006952;28;20053;-80
2022/04/14 01:55:06;;;;;;;31.00;17.17;;;10.10;99.90;;;;;;5014110;28;20063;-81
2022/04/14 01:57:31;;;;;;;29.73;17.45;;;10.00;99.90;;;;;;5013878;28;20056;-81
2022/04/14 01:59:59;;;;;;;32.33;18.73;;;10.10;99.90;;;;;;5030686;28;20041;-81
2022/04/14 02:02:24;;;;;;;38.67;18.73;;;10.00;99.90;;;;;;5018083;28;20147;-81
2022/04/14 02:04:51;;;;;;;38.40;19.90;;;10.00;99.90;;;;;;5016206;28;20645;-81
2022/04/14 02:07:18;;;;;;;37.25;18.92;;;9.90;99.90;;;;;;5033546;28;20053;-81
2022/04/14 02:09:44;;;;;;;33.08;18.60;;;9.90;99.90;;;;;;5032972;28;20041;-81
2022/04/14 02:12:11;;;;;;;35.92;18.90;;;9.90;99.90;;;;;;5017524;28;20048;-81
2022/04/14 02:14:38;;;;;;;35.00;19.63;;;9.90;99.90;;;;;;5032550;28;20137;-81
2022/04/14 02:17:04;;;;;;;39.72;20.27;;;9.90;99.90;;;;;;5033071;28;20115;-81
2022/04/14 02:19:30;;;;;;;35.20;18.85;;;9.90;99.90;;;;;;5014112;28;20057;-82
2022/04/14 02:21:58;;;;;;;48.38;19.52;;;9.80;99.90;;;;;;5015542;28;20044;-81
2022/04/14 02:24:25;;;;;;;40.83;21.17;;;9.80;99.90;;;;;;5033650;28;20088;-82
2022/04/14 02:26:51;;;;;;;43.83;21.05;;;9.80;99.90;;;;;;5032472;28;20079;-81
2022/04/14 02:29:16;;;;;;;149.57;27.92;;;9.90;99.90;;;;;;5015941;28;20053;-81
2022/04/14 02:31:42;;;;;;;90.10;25.90;;;9.80;99.90;;;;;;5016154;28;20051;-81
2022/04/14 02:34:08;;;;;;;99.75;27.38;;;9.90;99.90;;;;;;5003694;28;20529;-81
2022/04/14 02:36:34;;;;;;;344.38;33.28;;;9.90;99.90;;;;;;5024549;28;20437;-80
2022/04/14 02:39:00;;;;;;;63.05;25.27;;;9.80;99.90;;;;;;4993453;28;20057;-81
2022/04/14 02:41:25;;;;;;;45.33;23.40;;;9.80;99.90;;;;;;5026690;28;20058;-81
2022/04/14 02:43:51;;;;;;;44.10;21.98;;;9.90;99.90;;;;;;5025373;28;20072;-81
2022/04/14 02:46:17;;;;;;;34.38;18.73;;;9.80;99.90;;;;;;5036250;28;20056;-81
2022/04/14 02:48:42;;;;;;;45.58;23.17;;;9.80;99.90;;;;;;5013093;28;20083;-81
2022/04/14 02:51:08;;;;;;;35.78;20.13;;;9.70;99.90;;;;;;5029997;28;20044;-81
2022/04/14 02:53:34;;;;;;;41.15;23.83;;;9.70;99.90;;;;;;4996859;28;20539;-81
2022/04/14 02:56:00;;;;;;;60.28;26.30;;;9.70;99.90;;;;;;5012902;28;20087;-81
2022/04/14 02:58:26;;;;;;;29.27;17.10;;;9.70;99.90;;;;;;5028934;28;20042;-81
2022/04/14 03:00:51;;;;;;;29.13;16.95;;;9.70;99.90;;;;;;5023342;28;20042;-81
2022/04/14 03:03:17;;;;;;;39.67;21.15;;;9.70;99.90;;;;;;5031192;28;20050;-81
2022/04/14 03:05:43;;;;;;;31.05;17.17;;;9.60;99.90;;;;;;5045936;28;20045;-80
2022/04/14 03:08:09;;;;;;;61.17;27.08;;;9.60;99.90;;;;;;5012616;28;20077;-81
2022/04/14 03:10:35;;;;;;;54.40;26.15;;;9.60;99.90;;;;;;5029653;28;20080;-81
2022/04/14 03:13:00;;;;;;;52.90;25.13;;;9.60;99.90;;;;;;5028655;28;20165;-81
2022/04/14 03:15:26;;;;;;;51.50;23.15;;;9.70;99.90;;;;;;5028553;28;20120;-81
2022/04/14 03:17:53;;;;;;;59.75;28.52;;;9.70;99.90;;;;;;5028965;28;20045;-81
2022/04/14 03:20:19;;;;;;;62.58;27.67;;;9.70;99.90;;;;;;5029586;28;20045;-81
2022/04/14 03:22:45;;;;;;;62.15;28.13;;;9.60;99.90;;;;;;5028212;28;20050;-81
2022/04/14 03:25:13;;;;;;;53.72;27.38;;;9.60;99.90;;;;;;5029201;28;20053;-81
2022/04/14 03:27:39;;;;;;;60.55;28.98;;;9.60;99.90;;;;;;5029384;28;20411;-81
2022/04/14 03:30:06;;;;;;;71.95;29.20;;;9.60;99.90;;;;;;5028039;28;20053;-81
2022/04/14 03:32:38;;;;;;;48.47;23.95;;;9.60;99.90;;;;;;5029485;28;20184;-81
2022/04/14 03:35:04;;;;;;;38.60;21.65;;;9.60;99.90;;;;;;5009467;28;20140;-81
2022/04/14 03:37:30;;;;;;;44.67;24.08;;;9.50;99.90;;;;;;5009470;28;20120;-81
2022/04/14 03:39:56;;;;;;;39.75;22.42;;;9.50;99.90;;;;;;5008092;28;20102;-81
2022/04/14 03:42:21;;;;;;;44.85;23.20;;;9.50;99.90;;;;;;5009659;28;20488;-81
2022/04/14 03:44:47;;;;;;;71.85;28.88;;;9.40;99.90;;;;;;5007981;28;20045;-81
2022/04/14 03:47:13;;;;;;;135.07;30.60;;;9.40;99.90;;;;;;4993400;28;20057;-80
2022/04/14 03:49:38;;;;;;;327.63;34.42;;;9.40;99.90;;;;;;5007860;28;20049;-81
2022/04/14 03:52:05;;;;;;;195.02;28.20;;;9.40;99.90;;;;;;5008564;28;20096;-81
2022/04/14 03:54:30;;;;;;;;;;;9.30;99.90;;;;;;4993710;28;20053;-81
2022/04/14 03:56:56;;;;;;;65.38;21.00;;;9.30;99.90;;;;;;5008915;28;19925;-81
2022/04/14 03:59:21;;;;;;;62.05;24.00;;;9.20;99.90;;;;;;5008503;28;20045;-81
2022/04/14 04:01:47;;;;;;;101.43;27.73;;;9.10;99.90;;;;;;5008694;28;20053;-81
2022/04/14 04:04:13;;;;;;;172.68;32.08;;;9.10;99.90;;;;;;5009673;28;20057;-81
2022/04/14 04:06:38;;;;;;;302.15;35.80;;;9.10;99.90;;;;;;5009058;28;20054;-81
2022/04/14 04:09:04;;;;;;;169.32;26.50;;;9.10;99.90;;;;;;5007536;28;20076;-81
2022/04/14 04:11:30;;;;;;;340.00;37.10;;;9.10;99.90;;;;;;5028960;28;20124;-81
2022/04/14 04:13:56;;;;;;;205.07;25.17;;;9.00;99.90;;;;;;5027871;28;20126;-81
2022/04/14 04:16:21;;;;;;;446.00;40.25;;;9.00;99.90;;;;;;5028649;28;20056;-81
2022/04/14 04:18:47;;;;;;;191.32;33.58;;;9.00;99.90;;;;;;5022964;28;20045;-81
2022/04/14 04:21:12;;;;;;;112.82;26.20;;;8.90;99.90;;;;;;5029126;28;20395;-81
2022/04/14 04:23:38;;;;;;;130.85;27.63;;;9.00;99.90;;;;;;5028452;28;20056;-81
2022/04/14 04:26:04;;;;;;;350.80;35.15;;;9.00;99.90;;;;;;5028423;28;20057;-80
2022/04/14 04:28:32;;;;;;;311.45;31.40;;;8.90;99.90;;;;;;5014557;28;20049;-80
2022/04/14 04:30:58;;;;;;;321.90;33.45;;;8.90;99.90;;;;;;5031177;28;20132;-81
2022/04/14 04:33:24;;;;;;;430.42;41.65;;;8.90;99.90;;;;;;5031942;28;20215;-81
2022/04/14 04:35:50;;;;;;;426.02;44.08;;;9.00;99.90;;;;;;5031507;28;20048;-81
2022/04/14 04:38:16;;;;;;;210.75;38.80;;;8.90;99.90;;;;;;5031483;28;20449;-80
2022/04/14 04:40:42;;;;;;;144.32;36.53;;;8.80;99.90;;;;;;5031621;28;20057;-80
2022/04/14 04:43:09;;;;;;;189.63;43.10;;;8.90;99.90;;;;;;5031004;28;20156;-81
2022/04/14 04:45:35;;;;;;;171.27;46.05;;;8.90;99.90;;;;;;5031799;28;20064;-81
2022/04/14 04:48:02;;;;;;;176.73;47.38;;;8.90;99.90;;;;;;5015240;28;20052;-80
2022/04/14 04:50:28;;;;;;;216.88;52.58;;;8.90;99.90;;;;;;5031724;28;20068;-81
2022/04/14 04:52:54;;;;;;;155.95;48.78;;;9.00;99.90;;;;;;5030625;28;20442;-80
2022/04/14 04:55:20;;;;;;;193.00;48.08;;;9.00;99.90;;;;;;5031902;28;20076;-81
2022/04/14 04:57:45;;;;;;;225.50;53.58;;;9.00;99.90;;;;;;5031786;28;20132;-81
2022/04/14 05:00:12;;;;;;;383.58;52.92;;;9.00;99.90;;;;;;5030985;28;20056;-81
2022/04/14 05:02:37;;;;;;;;;;;9.00;99.90;;;;;;5032199;28;20049;-81
2022/04/14 05:05:03;;;;;;;604.83;65.30;;;9.00;99.90;;;;;;5031095;28;20837;-80
2022/04/14 05:07:29;;;;;;;633.25;56.40;;;9.00;99.90;;;;;;5031351;28;20045;-81
2022/04/14 05:09:55;;;;;;;;;;;9.00;99.90;;;;;;5014964;28;20081;-81
2022/04/14 05:12:21;;;;;;;276.02;37.90;;;9.00;99.90;;;;;;5024629;28;20549;-80
2022/04/14 05:14:46;;;;;;;362.88;37.45;;;8.90;99.90;;;;;;5013554;28;20049;-81
2022/04/14 05:17:12;;;;;;;263.85;30.60;;;8.90;99.90;;;;;;5031793;28;20372;-80
2022/04/14 05:19:38;;;;;;;377.90;37.45;;;8.80;99.90;;;;;;4998915;28;20045;-81
2022/04/14 05:22:04;;;;;;;625.83;48.08;;;8.80;99.90;;;;;;5008942;28;20777;-83
2022/04/14 05:24:30;;;;;;;594.80;48.72;;;8.70;99.90;;;;;;5014740;28;20584;-81
2022/04/14 05:26:56;;;;;;;454.83;47.03;;;8.70;99.90;;;;;;5030810;28;20134;-80
2022/04/14 05:29:21;;;;;;;482.35;49.20;;;8.70;99.90;;;;;;5030623;28;20486;-81
2022/04/14 05:31:47;;;;;;;486.35;50.58;;;8.70;99.90;;;;;;5028823;28;20041;-81
2022/04/14 05:34:13;;;;;;;563.45;60.25;;;8.80;99.90;;;;;;5031049;28;20049;-81
2022/04/14 05:36:38;;;;;;;567.33;57.60;;;8.70;99.90;;;;;;5030585;28;20068;-81
2022/04/14 05:39:05;;;;;;;497.50;56.90;;;8.80;99.90;;;;;;5013506;28;20085;-81
2022/04/14 05:41:30;;;;;;;;;;;8.80;99.90;;;;;;5031447;28;20442;-81
2022/04/14 05:43:56;;;;;;;486.60;46.08;;;8.80;99.90;;;;;;5022753;28;19951;-81
2022/04/14 05:46:22;;;;;;;612.33;59.85;;;8.80;99.90;;;;;;5029112;28;20538;-82
2022/04/14 05:48:49;;;;;;;595.70;50.70;;;8.90;99.90;;;;;;5030836;28;20128;-81
2022/04/14 05:51:15;;;;;;;766.97;61.13;;;8.90;99.90;;;;;;5030966;28;20052;-81
2022/04/14 05:53:41;;;;;;;562.67;50.53;;;8.90;99.90;;;;;;5029891;28;20049;-81
2022/04/14 05:56:07;;;;;;;381.27;33.72;;;8.80;99.90;;;;;;5012181;28;20080;-81
2022/04/14 05:58:33;;;;;;;256.95;34.28;;;8.80;99.90;;;;;;5029362;28;20509;-81
2022/04/14 06:00:58;;;;;;;179.88;32.65;;;8.90;99.90;;;;;;5013559;28;20117;-81
2022/04/14 06:03:25;;;;;;;346.67;35.47;;;8.90;99.90;;;;;;5014317;28;20041;-81
2022/04/14 06:05:51;;;;;;;476.05;41.65;;;8.90;99.90;;;;;;5030228;28;20061;-81
2022/04/14 06:08:17;;;;;;;466.05;35.25;;;8.90;99.90;;;;;;5013725;28;20099;-82
2022/04/14 06:10:43;;;;;;;331.75;27.15;;;8.90;99.90;;;;;;5014006;28;20049;-82
2022/04/14 06:13:08;;;;;;;248.23;29.05;;;8.90;99.90;;;;;;5012956;28;20037;-81
2022/04/14 06:15:34;;;;;;;134.57;30.33;;;8.90;99.90;;;;;;5028914;28;20537;-82
2022/04/14 06:18:00;;;;;;;121.20;32.58;;;8.90;99.90;;;;;;5029815;28;20050;-82
2022/04/14 06:20:26;;;;;;;71.35;32.35;;;8.90;99.90;;;;;;5030560;28;20045;-82
2022/04/14 06:22:52;;;;;;;86.28;38.10;;;8.90;99.90;;;;;;5029417;28;20148;-81
2022/04/14 06:25:22;;;;;;;91.45;40.22;;;9.00;99.90;;;;;;5030171;28;20054;-82
2022/04/14 06:27:49;;;;;;;98.07;41.00;;;9.00;99.90;;;;;;5014035;28;20045;-82
2022/04/14 06:30:15;;;;;;;100.18;44.83;;;9.10;99.90;;;;;;5028554;28;20049;-83
2022/04/14 06:32:42;;;;;;;109.13;46.45;;;9.20;99.90;;;;;;5030289;28;20049;-82
2022/04/14 06:35:13;;;;;;;108.65;45.85;;;9.30;99.90;;;;;;4977642;28;20085;-83
2022/04/14 06:37:39;;;;;;;106.60;45.45;;;9.40;99.90;;;;;;5010120;28;20038;-82
2022/04/14 06:40:05;;;;;;;103.45;45.83;;;9.50;99.90;;;;;;5002586;28;20076;-82
2022/04/14 06:42:32;;;;;;;91.55;43.97;;;9.60;99.90;;;;;;5026904;28;20450;-82
2022/04/14 06:44:59;;;;;;;96.70;43.97;;;9.60;99.90;;;;;;5027744;28;20060;-81
2022/04/14 06:47:26;;;;;;;86.65;42.28;;;9.70;99.90;;;;;;5029988;28;20419;-82
2022/04/14 06:49:52;;;;;;;80.47;39.88;;;9.80;99.90;;;;;;5029160;28;20491;-81
2022/04/14 06:52:18;;;;;;;;;;;9.90;99.90;;;;;;5015524;28;20080;-82
2022/04/14 06:54:44;;;;;;;74.43;35.38;;;10.00;99.90;;;;;;5029589;28;19983;-82
2022/04/14 06:57:09;;;;;;;;;;;10.00;99.90;;;;;;4997238;28;20058;-81
2022/04/14 06:59:35;;;;;;;75.05;36.40;;;10.10;99.90;;;;;;5043061;28;19951;-82
2022/04/14 07:02:01;;;;;;;77.25;38.22;;;10.10;99.90;;;;;;5012285;28;20064;-81
2022/04/14 07:04:27;;;;;;;73.80;37.75;;;10.20;99.90;;;;;;5013477;28;20057;-81
2022/04/14 07:06:53;;;;;;;67.05;33.95;;;10.20;99.90;;;;;;5028253;28;20128;-81
2022/04/14 07:09:20;;;;;;;76.78;37.30;;;10.30;99.90;;;;;;5013425;28;20057;-82
2022/04/14 07:11:45;;;;;;;;;;;10.30;99.90;;;;;;5027088;28;20080;-84
2022/04/14 07:14:11;;;;;;;72.97;36.20;;;10.40;99.90;;;;;;5027661;28;20402;-84
2022/04/14 07:16:37;;;;;;;75.50;36.92;;;10.70;99.90;;;;;;5011622;28;20056;-83
2022/04/14 07:19:02;;;;;;;80.38;38.35;;;10.40;99.90;;;;;;5042358;28;20483;-83
2022/04/14 07:21:28;;;;;;;78.65;37.08;;;10.50;99.90;;;;;;5012527;28;20045;-83
2022/04/14 07:23:54;;;;;;;77.13;37.78;;;10.50;99.90;;;;;;5027374;28;20656;-83
2022/04/14 07:26:19;;;;;;;71.00;37.75;;;10.60;99.90;;;;;;5009560;28;20045;-83
2022/04/14 07:28:45;;;;;;;74.55;37.78;;;10.60;99.90;;;;;;5026255;28;20124;-82
2022/04/14 07:31:11;;;;;;;74.43;37.50;;;10.70;99.90;;;;;;5026968;28;20041;-83
2022/04/14 07:33:36;;;;;;;68.82;34.38;;;10.80;99.90;;;;;;5008884;28;20454;-82
2022/04/14 07:36:03;;;;;;;62.33;33.00;;;10.80;99.90;;;;;;5041901;28;20053;-83
2022/04/14 07:38:28;;;;;;;66.18;34.50;;;10.90;99.90;;;;;;5008948;28;20038;-83
2022/04/14 07:40:56;;;;;;;73.22;36.50;;;11.00;99.90;;;;;;5001132;28;20187;-82
2022/04/14 07:43:22;;;;;;;60.80;31.85;;;11.00;99.90;;;;;;5011173;28;20126;-81
2022/04/14 07:45:48;;;;;;;58.67;29.38;;;11.10;99.90;;;;;;5011572;28;20041;-83
2022/04/14 07:48:16;;;;;;;59.78;30.05;;;11.20;99.90;;;;;;5028664;28;20188;-84
2022/04/14 07:50:42;;;;;;;61.38;28.75;;;11.30;99.90;;;;;;5028860;28;20148;-82
2022/04/14 07:53:08;;;;;;;58.05;30.38;;;11.30;99.90;;;;;;5010684;28;20072;-86
2022/04/14 07:55:35;;;;;;;62.72;31.98;;;11.40;99.90;;;;;;5012717;28;20045;-82
2022/04/14 07:58:07;;;;;;;43.15;24.02;;;11.40;99.90;;;;;;4995248;28;20040;-82
2022/04/14 08:00:34;;;;;;;51.17;26.48;;;11.50;99.90;;;;;;5028401;28;20427;-82
2022/04/14 08:03:01;;;;;;;38.38;21.45;;;11.50;99.90;;;;;;5030705;28;20065;-82
2022/04/14 08:05:36;;;;;;;42.53;22.45;;;11.60;99.90;;;;;;5032464;28;20052;-83
2022/04/14 08:08:07;;;;;;;48.75;24.20;;;11.70;99.90;;;;;;5046182;28;20053;-83
2022/04/14 08:10:33;;;;;;;39.97;21.52;;;11.70;99.90;;;;;;5032513;28;20049;-82
2022/04/14 08:12:59;;;;;;;;;;;11.80;99.90;;;;;;5032518;28;20049;-82
2022/04/14 08:15:25;;;;;;;37.80;19.33;;;11.80;99.90;;;;;;5031921;28;19931;-82
2022/04/14 08:17:50;;;;;;;36.70;19.63;;;11.90;99.90;;;;;;5021428;28;20088;-82
2022/04/14 08:20:17;;;;;;;39.85;21.38;;;12.00;99.90;;;;;;5021970;28;20111;-82
2022/04/14 08:22:51;;;;;;;35.70;18.70;;;12.10;99.90;;;;;;5012478;28;20037;-82
2022/04/14 08:25:20;;;;;;;34.80;18.50;;;12.20;99.90;;;;;;5012057;28;20053;-82
2022/04/14 08:27:47;;;;;;;29.98;18.25;;;12.20;99.90;;;;;;5009678;28;20116;-82
2022/04/14 08:30:14;;;;;;;34.97;20.00;;;12.30;99.90;;;;;;5030354;28;20099;-83
2022/04/14 08:32:40;;;;;;;33.30;19.23;;;12.30;99.90;;;;;;5032490;28;20186;-83
2022/04/14 08:35:06;;;;;;;34.10;17.85;;;12.40;99.90;;;;;;5015406;28;20056;-82
2022/04/14 08:37:32;;;;;;;34.28;18.02;;;12.40;99.90;;;;;;5032014;28;20084;-83
2022/04/14 08:39:58;;;;;;;34.15;18.92;;;12.50;99.90;;;;;;5015193;28;20053;-82
2022/04/14 08:42:40;;;;;;;32.42;17.58;;;12.50;99.90;;;;;;5031730;28;20048;-82
2022/04/14 08:45:11;;;;;;;28.45;15.43;;;12.60;99.90;;;;;;5029914;28;20103;-82
2022/04/14 08:47:40;;;;;;;29.05;16.08;;;12.70;99.90;;;;;;5015897;28;20056;-82
2022/04/14 08:50:08;;;;;;;27.13;16.42;;;12.70;99.90;;;;;;5031566;28;20694;-82
2022/04/14 08:52:36;;;;;;;27.17;16.17;;;12.80;99.90;;;;;;5030825;28;20057;-82
2022/04/14 08:55:04;;;;;;;28.13;16.52;;;12.90;99.90;;;;;;5031640;28;20045;-83
2022/04/14 08:57:31;;;;;;;23.50;14.18;;;12.90;99.90;;;;;;5031940;28;20056;-82
2022/04/14 08:59:59;;;;;;;28.80;15.90;;;13.00;99.90;;;;;;5014292;28;20052;-82
2022/04/14 09:02:25;;;;;;;23.38;14.23;;;13.10;99.90;;;;;;5003005;28;20053;-83
2022/04/14 09:04:51;;;;;;;33.72;16.42;;;13.10;99.90;;;;;;5031978;28;20053;-84
2022/04/14 09:07:18;;;;;;;24.67;15.23;;;13.20;99.90;;;;;;5029729;28;20045;-82
2022/04/14 09:09:45;;;;;;;25.38;14.05;;;13.20;99.90;;;;;;5011766;28;20046;-82
2022/04/14 09:12:12;;;;;;;21.48;12.48;;;13.30;99.90;;;;;;5025091;28;20037;-83
2022/04/14 09:14:38;;;;;;;24.15;14.55;;;13.40;99.90;;;;;;4997944;28;20395;-81
2022/04/14 09:17:05;;;;;;;24.20;13.50;;;13.50;99.90;;;;;;5030882;28;20052;-81
2022/04/14 09:19:32;;;;;;;21.65;12.55;;;13.50;99.90;;;;;;5031518;28;20372;-82
2022/04/14 09:21:58;;;;;;;21.33;11.35;;;13.60;99.90;;;;;;5027074;28;20764;-81
2022/04/14 09:24:48;;;;;;;22.63;13.68;;;13.70;99.90;;;;;;5013722;28;20049;-81
2022/04/14 09:27:25;;;;;;;21.42;13.60;;;13.80;99.90;;;;;;5014014;28;20510;-81
2022/04/14 09:29:51;;;;;;;21.52;12.90;;;13.80;99.90;;;;;;5029246;28;20050;-81
2022/04/14 09:32:36;;;;;;;23.45;13.73;;;13.90;99.90;;;;;;5030635;28;20061;-81
2022/04/14 09:35:17;;;;;;;19.88;12.98;;;14.00;99.90;;;;;;5031178;28;20050;-81
2022/04/14 09:37:43;;;;;;;20.63;12.60;;;14.00;99.90;;;;;;5030740;28;20053;-81
2022/04/14 09:40:10;;;;;;;22.40;13.88;;;14.10;99.90;;;;;;5029988;28;20517;-81
2022/04/14 09:42:37;;;;;;;21.17;12.15;;;14.20;99.90;;;;;;5014754;28;20046;-81
2022/04/14 09:45:20;;;;;;;22.50;14.35;;;14.30;99.90;;;;;;5029374;28;20074;-83
2022/04/14 09:48:01;;;;;;;19.50;11.85;;;14.50;99.90;;;;;;5030611;28;20548;-81
2022/04/14 09:50:35;;;;;;;18.85;11.95;;;14.70;99.90;;;;;;5012350;28;20048;-83
2022/04/14 09:53:10;;;;;;;21.35;10.93;;;14.80;99.90;;;;;;5010442;28;20399;-83
2022/04/14 09:55:54;;;;;;;20.33;12.80;;;14.90;99.90;;;;;;5011176;28;20047;-81
2022/04/14 09:58:21;;;;;;;20.33;10.63;;;15.10;99.90;;;;;;5010901;28;20495;-82
2022/04/14 10:00:57;;;;;;;22.63;12.57;;;15.30;99.90;;;;;;5047058;28;20486;-81
2022/04/14 10:03:31;;;;;;;19.60;13.57;;;15.40;99.90;;;;;;5030231;28;20054;-82
2022/04/14 10:05:59;;;;;;;18.85;12.07;;;15.30;99.90;;;;;;5017745;28;20050;-82
2022/04/14 10:08:27;;;;;;;18.90;11.88;;;15.30;99.90;;;;;;5007488;28;20537;-82
2022/04/14 10:11:08;;;;;;;18.63;12.32;;;15.40;99.90;;;;;;4992898;28;20491;-82
2022/04/14 10:13:40;;;;;;;19.50;12.98;;;15.40;99.90;;;;;;5025706;28;20084;-81
2022/04/14 10:16:07;;;;;;;16.92;10.40;;;15.40;99.90;;;;;;5028470;28;20049;-81
2022/04/14 10:18:33;;;;;;;19.63;13.45;;;15.40;99.90;;;;;;5029898;28;20084;-81
2022/04/14 10:21:00;;;;;;;20.98;11.50;;;15.50;99.90;;;;;;5046773;28;20111;-83
2022/04/14 10:23:29;;;;;;;17.08;11.43;;;15.60;99.90;;;;;;5024688;28;20049;-82
2022/04/14 10:25:55;;;;;;;15.05;10.10;;;15.80;99.90;;;;;;5028850;28;20100;-81
2022/04/14 10:28:23;;;;;;;16.60;11.50;;;15.80;99.90;;;;;;5009649;28;20049;-82
2022/04/14 10:30:57;;;;;;;16.88;11.18;;;15.90;99.90;;;;;;5029058;28;20402;-82
2022/04/14 10:33:23;;;;;;;16.98;9.95;;;16.10;99.90;;;;;;5027221;28;20822;-82
2022/04/14 10:35:50;;;;;;;16.05;9.68;;;16.10;99.90;;;;;;5009510;28;20124;-82
2022/04/14 10:38:20;;;;;;;19.98;11.15;;;16.10;99.90;;;;;;5011692;28;20402;-81
2022/04/14 10:40:51;;;;;;;16.48;10.48;;;16.30;99.90;;;;;;5028711;28;20479;-81
2022/04/14 10:43:23;;;;;;;16.70;10.85;;;16.40;99.90;;;;;;5028201;28;20057;-82
2022/04/14 10:45:51;;;;;;;18.63;10.95;;;16.50;99.90;;;;;;5013264;28;20050;-82
2022/04/14 10:48:39;;;;;;;22.92;13.90;;;16.70;99.90;;;;;;5029272;28;20052;-82
2022/04/14 10:51:24;;;;;;;20.15;11.50;;;16.70;99.90;;;;;;5029237;28;20045;-82
2022/04/14 10:54:04;;;;;;;19.60;11.50;;;16.80;99.90;;;;;;5018026;28;20049;-82
2022/04/14 10:56:44;;;;;;;18.92;11.98;;;16.90;99.90;;;;;;5029151;28;20049;-82
2022/04/14 10:59:21;;;;;;;19.50;13.52;;;16.80;99.90;;;;;;5044801;28;20086;-81
2022/04/14 11:01:47;;;;;;;23.33;14.82;;;16.80;99.90;;;;;;5045848;28;20079;-82
2022/04/14 11:04:37;;;;;;;21.40;14.38;;;16.70;99.90;;;;;;5046061;28;20045;-82
2022/04/14 11:07:16;;;;;;;25.95;15.90;;;16.60;99.90;;;;;;5027408;28;20057;-82
2022/04/14 11:09:42;;;;;;;18.48;12.93;;;16.50;99.90;;;;;;5029458;28;20407;-82
2022/04/14 11:12:18;;;;;;;23.23;13.82;;;16.50;99.90;;;;;;5029062;28;20042;-82
2022/04/14 11:14:47;;;;;;;17.67;12.55;;;16.40;99.90;;;;;;5028569;28;20476;-82
2022/04/14 11:17:48;;;;;;;16.10;8.75;;;16.40;99.90;;;;;;5028891;28;20087;-82
2022/04/14 11:20:38;;;;;;;14.60;8.57;;;16.40;99.90;;;;;;5009289;28;20092;-82
2022/04/14 11:23:07;;;;;;;12.90;7.50;;;16.30;99.90;;;;;;5009908;28;20479;-82
2022/04/14 11:26:00;;;;;;;9.65;6.05;;;16.30;99.90;;;;;;5024411;28;20118;-81
2022/04/14 11:28:27;;;;;;;11.15;5.97;;;16.50;99.90;;;;;;5018340;28;20649;-81
2022/04/14 11:30:54;;;;;;;9.45;5.18;;;16.70;99.90;;;;;;5011176;28;20057;-82
2022/04/14 11:33:32;;;;;;;9.25;5.18;;;16.90;99.90;;;;;;5028577;28;20132;-81
2022/04/14 11:36:12;;;;;;;8.68;5.22;;;17.10;99.90;;;;;;5012362;28;20075;-81
2022/04/14 11:39:07;;;;;;;9.00;5.70;;;17.10;99.90;;;;;;5031540;28;20115;-83
2022/04/14 11:41:46;;;;;;;10.23;5.90;;;17.10;99.90;;;;;;5015740;28;20057;-83
2022/04/14 11:44:20;;;;;;;8.50;4.32;;;17.00;99.90;;;;;;5016533;28;20065;-83
2022/04/14 11:46:51;;;;;;;8.65;5.40;;;17.20;99.90;;;;;;5016483;28;20057;-82
2022/04/14 11:49:19;;;;;;;9.38;4.50;;;17.40;99.90;;;;;;5028955;28;20060;-82
2022/04/14 11:51:51;;;;;;;11.40;5.22;;;17.30;99.90;;;;;;5042914;28;20128;-83
2022/04/14 11:54:21;;;;;;;8.38;3.30;;;17.30;99.90;;;;;;5013065;28;20066;-82
2022/04/14 11:56:52;;;;;;;6.13;2.63;;;17.20;99.90;;;;;;5049575;28;20506;-82
2022/04/14 11:59:39;;;;;;;7.85;3.85;;;17.30;99.90;;;;;;5014802;28;20107;-81
2022/04/14 12:02:15;;;;;;;8.10;3.72;;;17.60;99.90;;;;;;5032175;28;20088;-83
2022/04/14 12:04:44;;;;;;;6.40;3.30;;;17.90;99.90;;;;;;5016345;28;20053;-82
2022/04/14 12:07:11;;;;;;;7.80;4.07;;;18.20;99.90;;;;;;5027103;28;20442;-83
2022/04/14 12:09:37;;;;;;;9.57;4.93;;;18.60;99.90;;;;;;5032199;28;20068;-83
2022/04/14 12:12:10;;;;;;;7.95;4.50;;;18.90;99.90;;;;;;5032739;28;20111;-82
2022/04/14 12:14:40;;;;;;;8.75;4.40;;;18.90;99.90;;;;;;5014977;28;20268;-83
2022/04/14 12:17:07;;;;;;;8.23;4.13;;;18.70;99.90;;;;;;5032539;28;20104;-83
2022/04/14 12:19:43;;;;;;;7.85;4.13;;;18.50;99.90;;;;;;5023938;28;20410;-82
2022/04/14 12:22:10;;;;;;;8.13;3.97;;;18.30;99.90;;;;;;5032040;28;20049;-83
2022/04/14 12:24:36;;;;;;;7.72;3.38;;;18.40;99.90;;;;;;5031541;28;20073;-83
2022/04/14 12:27:01;;;;;;;;;;;18.70;99.90;;;;;;5033009;28;20139;-83
2022/04/14 12:29:27;;;;;;;8.32;3.17;;;19.00;99.90;;;;;;5014788;28;20008;-83
2022/04/14 12:32:08;;;;;;;7.22;3.17;;;19.10;99.90;;;;;;5015281;28;20052;-84
2022/04/14 12:34:33;;;;;;;6.35;3.00;;;19.40;99.90;;;;;;5027564;28;20056;-83
2022/04/14 12:37:07;;;;;;;;;;;19.80;97.90;;;;;;4995211;28;20200;-82